createdAt,value
2023-03-02T00:01:55.181Z,59731.63
2023-03-02T00:04:27.914Z,59727.88
2023-03-02T00:07:01.899Z,59723.72
2023-03-02T00:09:31.292Z,59723.72
2023-03-02T00:11:59.714Z,59728.78
2023-03-02T00:14:28.057Z,59729.31
2023-03-02T00:16:56.373Z,59726.25
2023-03-02T00:19:24.710Z,59723.19
2023-03-02T00:21:53.047Z,59727.72
2023-03-02T00:24:22.812Z,59724.63
2023-03-02T00:26:51.126Z,59727.31
2023-03-02T00:29:19.488Z,59726.94
2023-03-02T00:31:48.002Z,59733.66
2023-03-02T00:34:21.307Z,59730.41
2023-03-02T00:36:50.054Z,59727.31
2023-03-02T00:39:20.222Z,59727.31
2023-03-02T00:41:50.083Z,59727.31
2023-03-02T00:44:18.497Z,59724.78
2023-03-02T00:46:47.438Z,59724.78
2023-03-02T00:49:15.803Z,59722.25
2023-03-02T00:51:44.100Z,59725.31
2023-03-02T00:54:12.404Z,59734.72
2023-03-02T00:56:40.827Z,59741.72
2023-03-02T00:59:26.522Z,59738.81
2023-03-02T01:01:58.222Z,59746.03
2023-03-02T01:04:29.681Z,59744.94
2023-03-02T01:06:58.669Z,59743.88
2023-03-02T01:09:27.584Z,59743.34
2023-03-02T01:11:55.896Z,59735.19
2023-03-02T01:14:26.161Z,59740.41
2023-03-02T01:16:54.628Z,59750.19
2023-03-02T01:19:22.964Z,59746.72
2023-03-02T01:21:51.560Z,59748.72
2023-03-02T01:24:19.945Z,59744.41
2023-03-02T01:26:48.222Z,59734.50
2023-03-02T01:29:16.647Z,59726.94
2023-03-02T01:31:46.379Z,59725.56
2023-03-02T01:34:14.796Z,59716.16
2023-03-02T01:36:45.654Z,59713.31
2023-03-02T01:39:15.816Z,59711.53
2023-03-02T01:41:45.052Z,59702.16
2023-03-02T01:44:42.858Z,59702.53
2023-03-02T01:47:18.659Z,59698.38
2023-03-02T01:49:51.380Z,59700.78
2023-03-02T01:52:20.940Z,59693.91
2023-03-02T01:54:51.231Z,59691.78
2023-03-02T01:57:24.440Z,59688.16
2023-03-02T01:59:57.220Z,59691.09
2023-03-02T02:02:28.208Z,59688.41
2023-03-02T02:04:57.552Z,59682.06
2023-03-02T02:07:25.867Z,59683.16
2023-03-02T02:09:54.450Z,59687.31
2023-03-02T02:12:24.432Z,59686.38
2023-03-02T02:14:53.960Z,59691.47
2023-03-02T02:17:22.362Z,59687.84
2023-03-02T02:20:07.473Z,59676.84
2023-03-02T02:22:58.888Z,59678.69
2023-03-02T02:25:40.485Z,59674.94
2023-03-02T02:28:17.423Z,59670.22
2023-03-02T02:30:47.177Z,59670.06
2023-03-02T02:33:18.425Z,59667.38
2023-03-02T02:35:48.179Z,59663.25
2023-03-02T02:38:21.567Z,59663.78
2023-03-02T02:40:54.108Z,59665.22
2023-03-02T02:43:24.273Z,59656.41
2023-03-02T02:45:56.084Z,59658.38
2023-03-02T02:48:26.980Z,59660.22
2023-03-02T02:51:00.421Z,59656.59
2023-03-02T02:53:34.937Z,59655.00
2023-03-02T02:56:04.042Z,59650.84
2023-03-02T02:58:36.053Z,59648.31
2023-03-02T03:01:04.880Z,59650.16
2023-03-02T03:03:35.834Z,59643.47
2023-03-02T03:06:07.994Z,59641.88
2023-03-02T03:08:55.887Z,59640.59
2023-03-02T03:11:26.723Z,59635.41
2023-03-02T03:14:01.618Z,59638.31
2023-03-02T03:16:32.812Z,59636.16
2023-03-02T03:19:07.542Z,59634.00
2023-03-02T03:21:36.113Z,59628.94
2023-03-02T03:24:04.594Z,59629.31
2023-03-02T03:26:33.194Z,59627.84
2023-03-02T03:29:03.756Z,59632.91
2023-03-02T03:31:32.140Z,59628.63
2023-03-02T03:34:01.098Z,59626.47
2023-03-02T03:36:31.240Z,59623.22
2023-03-02T03:39:00.432Z,59619.63
2023-03-02T03:41:28.756Z,59616.41
2023-03-02T03:43:57.142Z,59614.78
2023-03-02T03:46:26.983Z,59614.63
2023-03-02T03:48:55.366Z,59614.09
2023-03-02T03:51:23.845Z,59611.03
2023-03-02T03:53:59.828Z,59604.50
2023-03-02T03:56:28.325Z,59621.84
2023-03-02T03:59:06.345Z,59618.94
2023-03-02T04:01:37.785Z,59617.09
2023-03-02T04:04:08.386Z,59619.09
2023-03-02T04:06:37.258Z,59618.56
2023-03-02T04:09:06.720Z,59611.03
2023-03-02T04:11:37.709Z,59611.38
2023-03-02T04:14:06.885Z,59602.03
2023-03-02T04:16:37.937Z,59598.81
2023-03-02T04:19:09.429Z,59598.09
2023-03-02T04:21:38.441Z,59597.03
2023-03-02T04:24:08.179Z,59597.41
2023-03-02T04:26:38.945Z,59595.25
2023-03-02T04:29:07.770Z,59590.56
2023-03-02T04:31:40.547Z,59590.97
2023-03-02T04:34:09.083Z,59588.78
2023-03-02T04:36:39.629Z,59585.19
2023-03-02T04:39:09.376Z,59583.41
2023-03-02T04:41:38.011Z,59579.81
2023-03-02T04:44:06.404Z,59580.34
2023-03-02T04:46:35.680Z,59582.13
2023-03-02T04:49:06.602Z,59592.94
2023-03-02T04:51:37.353Z,59592.56
2023-03-02T04:54:07.907Z,59589.88
2023-03-02T04:56:36.263Z,59590.97
2023-03-02T04:59:04.850Z,59592.03
2023-03-02T05:01:33.658Z,59588.94
2023-03-02T05:04:03.123Z,59586.97
2023-03-02T05:06:33.179Z,59589.88
2023-03-02T05:09:01.825Z,59586.25
2023-03-02T05:11:30.180Z,59580.50
2023-03-02T05:14:01.692Z,59572.97
2023-03-02T05:16:33.153Z,59572.28
2023-03-02T05:19:02.997Z,59565.44
2023-03-02T05:21:32.863Z,59567.28
2023-03-02T05:24:01.401Z,59564.06
2023-03-02T05:26:30.070Z,59560.97
2023-03-02T05:28:58.863Z,59564.06
2023-03-02T05:31:32.533Z,59564.59
2023-03-02T05:34:00.878Z,59565.66
2023-03-02T05:36:29.272Z,59568.38
2023-03-02T05:38:59.075Z,59567.28
2023-03-02T05:41:27.966Z,59568.88
2023-03-02T05:43:58.713Z,59567.97
2023-03-02T05:46:27.464Z,59569.59
2023-03-02T05:48:55.892Z,59566.50
2023-03-02T05:51:24.221Z,59568.38
2023-03-02T05:53:52.606Z,59564.22
2023-03-02T05:56:22.535Z,59559.91
2023-03-02T05:58:50.988Z,59549.31
2023-03-02T06:01:19.314Z,59545.78
2023-03-02T06:03:47.930Z,59542.00
2023-03-02T06:06:16.388Z,59542.91
2023-03-02T06:08:45.598Z,59537.69
2023-03-02T06:11:14.212Z,59533.94
2023-03-02T06:13:43.876Z,59532.84
2023-03-02T06:16:12.345Z,59526.19
2023-03-02T06:18:41.662Z,59522.41
2023-03-02T06:21:10.173Z,59520.66
2023-03-02T06:23:38.568Z,59523.56
2023-03-02T06:26:10.017Z,59517.81
2023-03-02T06:28:51.366Z,59511.38
2023-03-02T06:31:22.960Z,59514.81
2023-03-02T06:33:51.559Z,59505.97
2023-03-02T06:36:20.001Z,59503.81
2023-03-02T06:38:48.489Z,59503.28
2023-03-02T06:41:17.272Z,59499.16
2023-03-02T06:43:45.923Z,59498.84
2023-03-02T06:46:14.368Z,59493.47
2023-03-02T06:48:44.224Z,59478.72
2023-03-02T06:51:13.251Z,59465.44
2023-03-02T06:53:41.634Z,59462.28
2023-03-02T06:56:10.294Z,59450.47
2023-03-02T06:58:38.738Z,59446.53
2023-03-02T07:01:08.840Z,59433.59
2023-03-02T07:03:37.723Z,59423.91
2023-03-02T07:06:07.855Z,59418.53
2023-03-02T07:08:36.440Z,59418.38
2023-03-02T07:11:08.391Z,59421.84
2023-03-02T07:13:37.990Z,59418.09
2023-03-02T07:16:10.983Z,59415.00
2023-03-02T07:18:39.952Z,59411.41
2023-03-02T07:21:09.870Z,59408.88
2023-03-02T07:23:38.256Z,59408.88
2023-03-02T07:26:08.781Z,59407.66
2023-03-02T07:28:39.485Z,59410.56
2023-03-02T07:31:08.808Z,59406.41
2023-03-02T07:33:38.004Z,59416.47
2023-03-02T07:36:07.399Z,59407.13
2023-03-02T07:38:37.741Z,59416.47
2023-03-02T07:41:08.942Z,59422.69
2023-03-02T07:43:38.047Z,59421.06
2023-03-02T07:46:07.038Z,59422.84
2023-03-02T07:48:35.972Z,59433.09
2023-03-02T07:51:06.059Z,59433.44
2023-03-02T07:53:34.476Z,59433.22
2023-03-02T07:56:09.011Z,59440.19
2023-03-02T07:58:38.034Z,59451.16
2023-03-02T08:01:06.652Z,59456.53
2023-03-02T08:03:35.443Z,59465.13
2023-03-02T08:06:09.473Z,59464.22
2023-03-02T08:08:38.694Z,59478.03
2023-03-02T08:11:09.698Z,59480.19
2023-03-02T08:13:38.528Z,59469.59
2023-03-02T08:16:09.539Z,59476.25
2023-03-02T08:18:38.411Z,59475.03
2023-03-02T08:21:13.001Z,59460.84
2023-03-02T08:23:41.470Z,59463.16
2023-03-02T08:26:13.858Z,59470.88
2023-03-02T08:28:43.254Z,59478.94
2023-03-02T08:31:12.415Z,59476.56
2023-03-02T08:33:41.015Z,59470.13
2023-03-02T08:36:29.097Z,59470.13
2023-03-02T08:38:57.522Z,59478.72
2023-03-02T08:41:27.267Z,59474.06
2023-03-02T08:43:57.005Z,59481.47
2023-03-02T08:46:25.368Z,59470.81
2023-03-02T08:48:53.688Z,59480.19
2023-03-02T08:51:24.074Z,59478.03
2023-03-02T08:53:55.479Z,59475.50
2023-03-02T08:56:28.709Z,59482.88
2023-03-02T08:59:00.257Z,59492.00
2023-03-02T09:01:31.132Z,59496.84
2023-03-02T09:04:00.811Z,59504.38
2023-03-02T09:06:31.222Z,59497.16
2023-03-02T09:08:59.702Z,59514.41
2023-03-02T09:11:29.576Z,59510.59
2023-03-02T09:13:58.023Z,59525.88
2023-03-02T09:16:29.122Z,59528.56
2023-03-02T09:18:57.667Z,59530.72
2023-03-02T09:21:26.552Z,59532.47
2023-03-02T09:23:57.963Z,59544.16
2023-03-02T09:26:27.283Z,59548.22
2023-03-02T09:28:57.354Z,59562.66
2023-03-02T09:31:26.565Z,59570.50
2023-03-02T09:33:57.098Z,59584.50
2023-03-02T09:36:27.361Z,59589.88
2023-03-02T09:38:56.076Z,59588.44
2023-03-02T09:41:46.706Z,59579.81
2023-03-02T09:44:41.438Z,59593.09
2023-03-02T09:47:33.384Z,59601.72
2023-03-02T09:50:13.171Z,59602.41
2023-03-02T09:52:48.762Z,59620.41
2023-03-02T09:55:20.550Z,59615.34
2023-03-02T09:57:49.246Z,59615.84
2023-03-02T10:00:28.117Z,59607.41
2023-03-02T10:03:11.339Z,59615.84
2023-03-02T10:05:47.782Z,59604.56
2023-03-02T10:08:18.394Z,59612.09
2023-03-02T10:10:54.272Z,59630.22
2023-03-02T10:13:26.384Z,59626.63
2023-03-02T10:16:13.810Z,59642.63
2023-03-02T10:18:46.758Z,59634.84
2023-03-02T10:21:23.375Z,59624.31
2023-03-02T10:23:57.258Z,59630.78
2023-03-02T10:26:39.441Z,59621.94
2023-03-02T10:29:32.143Z,59627.53
2023-03-02T10:32:13.561Z,59618.56
2023-03-02T10:34:41.949Z,59631.09
2023-03-02T10:37:14.869Z,59645.84
2023-03-02T10:39:43.542Z,59641.16
2023-03-02T10:42:16.792Z,59659.47
2023-03-02T10:44:49.268Z,59668.09
2023-03-02T10:47:24.017Z,59678.69
2023-03-02T10:49:54.359Z,59695.00
2023-03-02T10:52:25.113Z,59720.50
2023-03-02T10:55:03.387Z,59746.19
2023-03-02T10:57:37.745Z,59785.59
2023-03-02T11:00:14.855Z,59763.28
2023-03-02T11:02:52.532Z,59767.34
2023-03-02T11:05:25.043Z,59752.28
2023-03-02T11:07:54.943Z,59754.81
2023-03-02T11:10:27.534Z,59738.81
2023-03-02T11:12:55.903Z,59753.94
2023-03-02T11:15:27.466Z,59766.44
2023-03-02T11:18:02.990Z,59806.41
2023-03-02T11:20:35.085Z,59833.69
2023-03-02T11:23:31.896Z,59872.53
2023-03-02T11:26:07.258Z,59898.66
2023-03-02T11:28:48.380Z,59909.59
2023-03-02T11:31:27.657Z,59906.00
2023-03-02T11:34:18.205Z,59944.31
2023-03-02T11:36:59.877Z,59942.00
2023-03-02T11:39:41.148Z,59927.97
2023-03-02T11:42:20.787Z,59918.22
2023-03-02T11:44:49.934Z,59950.78
2023-03-02T11:47:20.746Z,59948.09
2023-03-02T11:49:56.104Z,59929.97
2023-03-02T11:52:27.382Z,59964.28
2023-03-02T11:55:01.334Z,59943.47
2023-03-02T11:57:34.394Z,59965.38
2023-03-02T12:00:08.271Z,59963.97
2023-03-02T12:02:36.706Z,59942.94
2023-03-02T12:05:22.832Z,59961.03
2023-03-02T12:07:58.377Z,59972.94
2023-03-02T12:10:32.995Z,60024.00
2023-03-02T12:13:13.774Z,60018.00
2023-03-02T12:15:43.677Z,60004.25
2023-03-02T12:18:46.027Z,60040.31
2023-03-02T12:21:18.823Z,60023.72
2023-03-02T12:24:03.779Z,60025.56
2023-03-02T12:26:36.432Z,60060.88
2023-03-02T12:29:22.613Z,60096.91
2023-03-02T12:31:53.612Z,60145.22
2023-03-02T12:34:37.716Z,60134.56
2023-03-02T12:37:16.923Z,60139.44
2023-03-02T12:40:29.502Z,60203.28
2023-03-02T12:43:18.631Z,60235.78
2023-03-02T12:46:13.737Z,60296.47
2023-03-02T12:49:01.271Z,60299.69
2023-03-02T12:51:31.746Z,60297.38
2023-03-02T12:54:06.242Z,60334.22
2023-03-02T12:56:34.987Z,60287.78
2023-03-02T12:59:03.650Z,60260.16
2023-03-02T13:01:33.940Z,60274.38
2023-03-02T13:04:02.528Z,60301.59
2023-03-02T13:06:33.446Z,60313.41
2023-03-02T13:09:02.117Z,60334.78
2023-03-02T13:11:35.421Z,60321.38
2023-03-02T13:14:20.010Z,60355.00
2023-03-02T13:16:57.216Z,60330.59
2023-03-02T13:19:27.093Z,60292.66
2023-03-02T13:21:55.748Z,60327.50
2023-03-02T13:24:36.102Z,60339.41
2023-03-02T13:27:09.144Z,60356.06
2023-03-02T13:29:37.502Z,60349.00
2023-03-02T13:32:20.964Z,60339.41
2023-03-02T13:34:51.635Z,60306.06
2023-03-02T13:37:31.926Z,60311.31
2023-03-02T13:40:02.507Z,60315.97
2023-03-02T13:42:38.102Z,60257.47
2023-03-02T13:45:24.015Z,60267.19
2023-03-02T13:47:52.712Z,60293.59
2023-03-02T13:50:23.544Z,60270.34
2023-03-02T13:52:53.640Z,60275.31
2023-03-02T13:55:25.731Z,60257.84
2023-03-02T13:57:57.078Z,60250.25
2023-03-02T14:00:32.354Z,60240.81
2023-03-02T14:03:01.307Z,60244.22
2023-03-02T14:05:33.314Z,60244.44
2023-03-02T14:08:02.878Z,60229.28
2023-03-02T14:10:31.377Z,60212.72
2023-03-02T14:13:05.488Z,60172.44
2023-03-02T14:15:34.574Z,60137.13
2023-03-02T14:18:02.986Z,60126.44
2023-03-02T14:20:31.449Z,60115.63
2023-03-02T14:23:03.416Z,60095.06
2023-03-02T14:25:31.926Z,60083.19
2023-03-02T14:28:01.606Z,60088.59
2023-03-02T14:30:30.019Z,60092.84
2023-03-02T14:32:58.388Z,60067.34
2023-03-02T14:35:27.016Z,60008.59
2023-03-02T14:37:55.426Z,59983.56
2023-03-02T14:40:29.000Z,59961.84
2023-03-02T14:42:57.428Z,59963.59
2023-03-02T14:45:30.894Z,59952.78
2023-03-02T14:47:59.347Z,59960.06
2023-03-02T14:50:27.847Z,59926.88
2023-03-02T14:52:58.713Z,59875.75
2023-03-02T14:55:28.725Z,59848.09
2023-03-02T14:58:00.177Z,59847.03
2023-03-02T15:00:30.000Z,59850.63
2023-03-02T15:02:59.288Z,59839.59
2023-03-02T15:05:27.680Z,59844.31
2023-03-02T15:07:58.815Z,59840.91
2023-03-02T15:10:27.352Z,59827.44
2023-03-02T15:12:55.683Z,59829.66
2023-03-02T15:15:25.095Z,59829.06
2023-03-02T15:17:57.844Z,59829.06
2023-03-02T15:20:26.177Z,59817.50
2023-03-02T15:22:54.512Z,59811.94
2023-03-02T15:25:23.992Z,59818.25
2023-03-02T15:27:52.877Z,59815.34
2023-03-02T15:30:21.780Z,59818.25
2023-03-02T15:32:50.169Z,59814.34
2023-03-02T15:35:20.098Z,59782.69
2023-03-02T15:37:48.428Z,59777.13
2023-03-02T15:40:17.024Z,59777.81
2023-03-02T15:42:45.360Z,59783.38
2023-03-02T15:45:14.162Z,59782.44
2023-03-02T15:47:42.473Z,59783.00
2023-03-02T15:50:12.552Z,59780.00
2023-03-02T15:52:42.883Z,59771.91
2023-03-02T15:55:11.375Z,59768.28
2023-03-02T15:57:40.144Z,59767.44
2023-03-02T16:00:09.966Z,59766.50
2023-03-02T16:02:38.573Z,59767.06
2023-03-02T16:05:07.692Z,59757.88
2023-03-02T16:07:37.180Z,59747.09
2023-03-02T16:10:08.566Z,59729.84
2023-03-02T16:12:37.081Z,59737.94
2023-03-02T16:15:06.461Z,59723.41
2023-03-02T16:17:35.016Z,59712.63
2023-03-02T16:20:03.505Z,59711.53
2023-03-02T16:22:31.915Z,59711.00
2023-03-02T16:25:00.307Z,59705.09
2023-03-02T16:27:30.465Z,59693.22
2023-03-02T16:29:58.846Z,59689.63
2023-03-02T16:32:27.444Z,59694.31
2023-03-02T16:34:56.218Z,59691.09
2023-03-02T16:37:24.728Z,59677.06
2023-03-02T16:39:53.181Z,59683.69
2023-03-02T16:42:21.697Z,59690.16
2023-03-02T16:44:52.275Z,59692.47
2023-03-02T16:47:20.830Z,59695.69
2023-03-02T16:49:49.398Z,59705.09
2023-03-02T16:52:18.560Z,59703.09
2023-03-02T16:54:47.037Z,59705.09
2023-03-02T16:57:15.395Z,59700.41
2023-03-02T16:59:43.871Z,59704.31
2023-03-02T17:02:14.124Z,59706.69
2023-03-02T17:04:42.931Z,59702.94
2023-03-02T17:07:11.470Z,59695.00
2023-03-02T17:09:41.453Z,59697.72
2023-03-02T17:12:09.887Z,59699.69
2023-03-02T17:14:38.471Z,59693.91
2023-03-02T17:17:06.881Z,59701.69
2023-03-02T17:19:36.651Z,59684.41
2023-03-02T17:22:05.437Z,59690.69
2023-03-02T17:24:34.447Z,59683.00
2023-03-02T17:27:04.229Z,59669.16
2023-03-02T17:29:33.871Z,59667.53
2023-03-02T17:32:02.419Z,59673.84
2023-03-02T17:34:31.361Z,59670.38
2023-03-02T17:37:01.636Z,59677.06
2023-03-02T17:39:30.643Z,59677.78
2023-03-02T17:41:59.791Z,59678.47
2023-03-02T17:44:28.850Z,59672.22
2023-03-02T17:46:57.335Z,59676.53
2023-03-02T17:49:25.764Z,59676.31
2023-03-02T17:51:54.298Z,59683.53
2023-03-02T17:54:24.139Z,59682.06
2023-03-02T17:56:52.576Z,59687.31
2023-03-02T17:59:21.169Z,59691.47
2023-03-02T18:01:49.771Z,59684.09
2023-03-02T18:04:18.603Z,59681.22
2023-03-02T18:06:47.043Z,59670.38
2023-03-02T18:09:15.666Z,59675.84
2023-03-02T18:11:45.937Z,59670.78
2023-03-02T18:14:17.276Z,59669.53
2023-03-02T18:16:46.225Z,59665.91
2023-03-02T18:19:14.789Z,59653.16
2023-03-02T18:21:43.201Z,59651.78
2023-03-02T18:24:11.819Z,59652.53
2023-03-02T18:26:40.307Z,59651.78
2023-03-02T18:29:10.150Z,59652.31
2023-03-02T18:31:38.646Z,59651.94
2023-03-02T18:34:07.094Z,59648.53
2023-03-02T18:36:35.547Z,59644.41
2023-03-02T18:39:04.375Z,59646.94
2023-03-02T18:41:32.858Z,59644.75
2023-03-02T18:44:03.591Z,59638.84
2023-03-02T18:46:34.574Z,59634.53
2023-03-02T18:49:04.448Z,59635.78
2023-03-02T18:51:33.027Z,59633.25
2023-03-02T18:54:01.416Z,59635.41
2023-03-02T18:56:29.827Z,59643.53
2023-03-02T18:58:58.205Z,59642.63
2023-03-02T19:01:26.640Z,59648.00
2023-03-02T19:03:57.608Z,59646.94
2023-03-02T19:06:26.224Z,59647.47
2023-03-02T19:08:55.050Z,59644.59
2023-03-02T19:11:23.913Z,59642.22
2023-03-02T19:13:52.249Z,59639.53
2023-03-02T19:16:20.730Z,59644.06
2023-03-02T19:18:50.073Z,59640.47
2023-03-02T19:21:19.923Z,59630.78
2023-03-02T19:23:48.580Z,59631.16
2023-03-02T19:26:17.019Z,59624.31
2023-03-02T19:28:45.585Z,59622.69
2023-03-02T19:31:14.222Z,59625.75
2023-03-02T19:33:45.085Z,59619.25
2023-03-02T19:36:15.108Z,59610.72
2023-03-02T19:38:44.876Z,59596.34
2023-03-02T19:41:15.423Z,59590.41
2023-03-02T19:43:46.256Z,59590.63
2023-03-02T19:46:15.675Z,59588.25
2023-03-02T19:48:45.021Z,59591.31
2023-03-02T19:51:15.061Z,59594.16
2023-03-02T19:53:46.161Z,59598.47
2023-03-02T19:56:22.550Z,59597.03
2023-03-02T19:58:53.897Z,59603.00
2023-03-02T20:01:30.387Z,59590.41
2023-03-02T20:04:00.054Z,59584.50
2023-03-02T20:06:31.481Z,59584.88
2023-03-02T20:09:03.553Z,59583.09
2023-03-02T20:11:32.340Z,59582.19
2023-03-02T20:14:02.160Z,59582.72
2023-03-02T20:16:31.318Z,59587.19
2023-03-02T20:19:01.933Z,59594.16
2023-03-02T20:21:30.891Z,59590.03
2023-03-02T20:23:59.729Z,59599.56
2023-03-02T20:26:29.554Z,59600.09
2023-03-02T20:28:59.565Z,59602.03
2023-03-02T20:31:28.130Z,59602.78
2023-03-02T20:33:57.371Z,59596.50
2023-03-02T20:36:29.511Z,59593.41
2023-03-02T20:39:01.317Z,59588.03
2023-03-02T20:41:31.494Z,59586.66
2023-03-02T20:43:59.886Z,59574.06
2023-03-02T20:46:31.620Z,59579.13
2023-03-02T20:49:00.686Z,59571.97
2023-03-02T20:51:29.808Z,59562.97
2023-03-02T20:53:58.462Z,59556.84
2023-03-02T20:56:26.925Z,59555.22
2023-03-02T20:58:57.063Z,59554.38
2023-03-02T21:01:26.143Z,59550.75
2023-03-02T21:03:54.634Z,59550.38
2023-03-02T21:06:23.057Z,59557.06
2023-03-02T21:08:52.597Z,59558.28
2023-03-02T21:11:22.353Z,59559.22
2023-03-02T21:13:52.804Z,59559.75
2023-03-02T21:16:24.975Z,59564.44
2023-03-02T21:18:54.766Z,59559.38
2023-03-02T21:21:32.634Z,59563.66
2023-03-02T21:24:09.453Z,59572.13
2023-03-02T21:26:37.913Z,59573.19
2023-03-02T21:29:06.540Z,59578.56
2023-03-02T21:31:36.318Z,59578.03
2023-03-02T21:34:04.905Z,59574.50
2023-03-02T21:36:33.624Z,59554.38
2023-03-02T21:39:02.072Z,59552.22
2023-03-02T21:41:30.429Z,59543.59
2023-03-02T21:43:58.823Z,59545.97
2023-03-02T21:46:27.232Z,59527.09
2023-03-02T21:48:57.030Z,59530.72
2023-03-02T21:51:25.797Z,59526.41
2023-03-02T21:53:54.172Z,59528.03
2023-03-02T21:56:25.189Z,59523.19
2023-03-02T21:58:55.602Z,59523.72
2023-03-02T22:01:25.475Z,59527.47
2023-03-02T22:03:54.290Z,59529.09
2023-03-02T22:06:27.134Z,59528.19
2023-03-02T22:08:56.940Z,59532.16
2023-03-02T22:11:26.933Z,59527.09
2023-03-02T22:13:57.765Z,59539.69
2023-03-02T22:16:28.179Z,59543.59
2023-03-02T22:18:58.557Z,59540.41
2023-03-02T22:21:37.731Z,59543.44
2023-03-02T22:24:19.752Z,59541.84
2023-03-02T22:26:50.457Z,59539.31
2023-03-02T22:29:24.092Z,59544.16
2023-03-02T22:31:54.826Z,59546.28
2023-03-02T22:34:27.289Z,59546.47
2023-03-02T22:37:00.870Z,59536.09
2023-03-02T22:39:31.611Z,59535.00
2023-03-02T22:42:06.264Z,59534.63
2023-03-02T22:44:35.244Z,59526.56
2023-03-02T22:47:07.415Z,59522.63
2023-03-02T22:49:35.697Z,59521.03
2023-03-02T22:52:13.920Z,59515.97
2023-03-02T22:54:42.267Z,59521.72
2023-03-02T22:57:30.365Z,59531.78
2023-03-02T23:00:31.802Z,59532.31
2023-03-02T23:03:00.110Z,59541.69
2023-03-02T23:05:30.974Z,59534.47
2023-03-02T23:08:18.465Z,59538.22
2023-03-02T23:10:47.029Z,59543.59
2023-03-02T23:13:17.559Z,59546.84
2023-03-02T23:15:47.140Z,59552.75
2023-03-02T23:18:21.404Z,59553.69
2023-03-02T23:20:50.602Z,59557.28
2023-03-02T23:23:21.634Z,59554.00
2023-03-02T23:25:50.608Z,59551.84
2023-03-02T23:28:18.952Z,59542.53
2023-03-02T23:30:47.579Z,59532.84
2023-03-02T23:33:16.224Z,59531.63
2023-03-02T23:35:44.591Z,59525.34
2023-03-02T23:38:12.902Z,59532.53
2023-03-02T23:40:42.615Z,59527.31
2023-03-02T23:43:10.954Z,59526.41
2023-03-02T23:45:39.934Z,59519.88
2023-03-02T23:48:08.282Z,59527.84
2023-03-02T23:50:36.598Z,59527.84
2023-03-02T23:53:05.164Z,59533.25
2023-03-02T23:55:33.829Z,59534.00
2023-03-02T23:58:03.744Z,59529.47
